Time;durP1;ratioP1;P1;durP2;ratioP2;P2;SDS_P1;SDS_P2;PMS_P1;PMS_P2;Temp;Humidity;BMP_temperature;BMP_pressure;BME280_temperature;BME280_humidity;BME280_pressure;Samples;Min_cycle;Max_cycle;Signal;HPM_P1;HPM_P2
2023/04/27 00:00:12;;;;;;;6.20;3.92;;;;;;;9.50;64.63;99612.44;331622;29;18446;-71
2023/04/27 00:00:24;;;;;;;8.10;4.00;;;;;;;9.49;64.87;99615.09;335131;28;4790;-71
2023/04/27 00:00:36;;;;;;;11.95;4.20;;;;;;;9.49;65.26;99613.31;332884;28;19350;-71
2023/04/27 00:00:48;;;;;;;10.32;4.15;;;;;;;9.48;64.82;99614.25;335275;28;4496;-72
2023/04/27 00:01:05;;;;;;;8.38;4.32;;;;;;;9.48;64.66;99616.84;331942;28;16864;-71
2023/04/27 00:01:17;;;;;;;6.65;3.97;;;;;;;9.50;64.57;99611.59;331711;29;17618;-72
2023/04/27 00:01:29;;;;;;;5.40;3.90;;;;;;;9.49;64.48;99610.72;334642;28;5515;-71
2023/04/27 00:01:41;;;;;;;5.78;4.00;;;;;;;9.50;64.65;99612.44;332611;28;17293;-72
2023/04/27 00:01:54;;;;;;;7.63;3.92;;;;;;;9.50;64.92;99617.63;335929;28;4692;-71
2023/04/27 00:02:06;;;;;;;7.65;3.92;;;;;;;9.50;65.18;99616.78;331977;29;18259;-72
2023/04/27 00:02:19;;;;;;;8.50;3.95;;;;;;;9.47;65.78;99612.53;333845;29;4659;-71
2023/04/27 00:02:31;;;;;;;8.77;4.00;;;;;;;9.45;65.41;99609.13;331752;28;18088;-73
2023/04/27 00:02:43;;;;;;;7.38;3.97;;;;;;;9.46;65.31;99615.19;335160;28;4605;-71
2023/04/27 00:02:56;;;;;;;6.53;3.97;;;;;;;9.43;65.37;99615.25;332381;28;17679;-72
2023/04/27 00:03:08;;;;;;;5.50;3.90;;;;;;;9.44;65.20;99612.63;333432;28;5070;-73
2023/04/27 00:03:22;;;;;;;4.75;3.72;;;;;;;9.45;65.05;99619.50;332550;28;19328;-71
2023/04/27 00:03:34;;;;;;;5.90;3.88;;;;;;;9.41;64.95;99607.50;334718;28;4582;-72
2023/04/27 00:03:46;;;;;;;8.57;4.00;;;;;;;9.41;64.73;99610.09;333208;28;18250;-71
2023/04/27 00:03:59;;;;;;;9.43;3.90;;;;;;;9.41;65.15;99612.69;335538;28;5401;-72
2023/04/27 00:04:13;;;;;;;8.05;3.88;;;;;;;9.36;65.06;99614.59;331290;28;18010;-71
2023/04/27 00:04:25;;;;;;;5.93;3.90;;;;;;;9.36;64.69;99614.59;333140;28;5067;-71
2023/04/27 00:04:37;;;;;;;6.72;4.00;;;;;;;9.37;65.01;99616.28;334853;28;18224;-72
2023/04/27 00:04:50;;;;;;;9.65;4.18;;;;;;;9.36;64.96;99618.03;333485;28;4667;-72
2023/04/27 00:05:04;;;;;;;8.90;4.00;;;;;;;9.39;64.76;99619.69;333140;28;18067;-71
2023/04/27 00:05:16;;;;;;;5.75;3.70;;;;;;;9.37;64.68;99611.09;332663;28;17805;-72
2023/04/27 00:05:28;;;;;;;5.80;3.78;;;;;;;9.37;64.64;99601.56;335745;28;4514;-72
2023/04/27 00:05:41;;;;;;;6.28;4.00;;;;;;;9.38;64.78;99612.81;332386;28;9589;-72
2023/04/27 00:05:53;;;;;;;6.68;3.95;;;;;;;9.34;65.59;99611.19;334810;29;4696;-72
2023/04/27 00:06:06;;;;;;;7.25;3.85;;;;;;;9.33;65.60;99612.06;333494;28;5248;-71
2023/04/27 00:06:18;;;;;;;8.35;3.90;;;;;;;9.33;65.27;99614.66;336162;28;4642;-72
2023/04/27 00:06:31;;;;;;;9.13;4.00;;;;;;;9.34;65.27;99611.19;334122;28;4669;-72
2023/04/27 00:06:43;;;;;;;7.15;3.95;;;;;;;9.33;65.08;99612.06;333841;28;17567;-72
2023/04/27 00:06:55;;;;;;;4.95;3.88;;;;;;;9.34;65.42;99611.19;333412;28;4841;-72
2023/04/27 00:07:07;;;;;;;6.03;4.10;;;;;;;9.32;65.52;99618.16;334700;28;17313;-72
2023/04/27 00:07:20;;;;;;;6.93;4.35;;;;;;;9.27;65.71;99607.91;335416;28;4622;-71
2023/04/27 00:07:32;;;;;;;7.15;4.38;;;;;;;9.28;65.37;99609.63;333507;28;18043;-72
2023/04/27 00:07:44;;;;;;;6.60;3.95;;;;;;;9.27;65.40;99612.25;334177;28;4872;-72
2023/04/27 00:07:56;;;;;;;6.50;3.90;;;;;;;9.25;65.22;99611.44;333221;28;18446;-71
2023/04/27 00:08:08;;;;;;;7.03;3.90;;;;;;;9.28;65.33;99613.97;335771;28;5044;-72
2023/04/27 00:08:20;;;;;;;6.97;4.10;;;;;;;9.28;64.83;99612.22;333095;28;9240;-71
2023/04/27 00:08:32;;;;;;;7.00;4.15;;;;;;;9.28;64.81;99611.38;335407;28;5274;-71
2023/04/27 00:08:44;;;;;;;6.25;3.97;;;;;;;9.28;64.72;99616.56;334875;28;4653;-71
2023/04/27 00:08:56;;;;;;;6.07;3.80;;;;;;;9.28;64.71;99613.97;332905;28;18383;-71
2023/04/27 00:09:08;;;;;;;5.80;3.97;;;;;;;9.28;64.47;99613.97;335327;28;4774;-71
2023/04/27 00:09:20;;;;;;;6.18;4.07;;;;;;;9.28;64.43;99611.38;331874;28;4718;-72
2023/04/27 00:09:32;;;;;;;6.90;4.05;;;;;;;9.29;64.59;99613.88;335417;28;5103;-71
2023/04/27 00:09:44;;;;;;;6.53;3.90;;;;;;;9.27;64.25;99610.50;334935;28;4569;-72
2023/04/27 00:09:56;;;;;;;6.30;3.97;;;;;;;9.25;64.19;99616.63;332534;28;4690;-71
2023/04/27 00:10:09;;;;;;;6.30;3.92;;;;;;;9.28;64.28;99611.38;335849;28;4540;-71
2023/04/27 00:10:21;;;;;;;5.35;3.90;;;;;;;9.27;64.17;99617.44;331933;28;18337;-71
2023/04/27 00:10:33;;;;;;;5.63;3.88;;;;;;;9.26;64.52;99615.75;335176;28;5026;-71
2023/04/27 00:10:45;;;;;;;5.47;3.85;;;;;;;9.28;64.18;99611.38;334711;28;9996;-71
2023/04/27 00:10:57;;;;;;;5.78;3.83;;;;;;;9.28;64.04;99611.38;332578;28;18402;-72
2023/04/27 00:11:09;;;;;;;4.70;3.55;;;;;;;9.28;64.09;99611.38;335698;28;6401;-70
2023/04/27 00:11:21;;;;;;;4.38;3.38;;;;;;;9.28;64.39;99616.56;331764;28;4649;-71
2023/04/27 00:11:33;;;;;;;5.53;3.80;;;;;;;9.25;64.18;99612.28;335382;28;4681;-70
2023/04/27 00:11:45;;;;;;;7.40;4.05;;;;;;;9.25;64.33;99616.63;333755;28;4610;-71
2023/04/27 00:11:57;;;;;;;7.00;3.92;;;;;;;9.22;65.14;99611.53;334990;28;4737;-71
2023/04/27 00:12:09;;;;;;;7.88;4.03;;;;;;;9.23;65.11;99610.63;335909;28;4544;-71
2023/04/27 00:12:21;;;;;;;6.82;4.03;;;;;;;9.20;64.69;99609.81;331822;29;18294;-71
2023/04/27 00:12:33;;;;;;;6.55;3.95;;;;;;;9.22;64.82;99609.78;334274;29;4708;-70
2023/04/27 00:12:45;;;;;;;6.03;3.90;;;;;;;9.25;64.71;99612.28;333943;29;4688;-71
2023/04/27 00:12:57;;;;;;;6.00;3.92;;;;;;;9.21;65.17;99608.06;331342;28;18145;-72
2023/04/27 00:13:09;;;;;;;6.00;3.90;;;;;;;9.23;65.71;99608.03;335491;28;4500;-71
2023/04/27 00:13:21;;;;;;;6.15;4.07;;;;;;;9.22;65.74;99606.34;333163;28;18056;-72
2023/04/27 00:13:33;;;;;;;6.65;4.03;;;;;;;9.20;65.63;99609.81;335195;28;4561;-71
2023/04/27 00:13:45;;;;;;;6.75;3.90;;;;;;;9.22;65.75;99608.94;335519;28;4563;-71
2023/04/27 00:13:57;;;;;;;6.72;3.85;;;;;;;9.20;66.34;99609.81;332098;28;19036;-71
2023/04/27 00:14:09;;;;;;;6.15;3.88;;;;;;;9.20;65.82;99612.41;335063;28;5242;-71
2023/04/27 00:14:21;;;;;;;6.13;4.03;;;;;;;9.20;65.99;99603.78;332180;28;18184;-71
2023/04/27 00:14:33;;;;;;;6.50;3.90;;;;;;;9.19;65.66;99608.13;334469;28;4667;-71
2023/04/27 00:14:45;;;;;;;6.50;3.83;;;;;;;9.17;65.56;99604.69;336069;28;4578;-71
2023/04/27 00:14:57;;;;;;;7.10;3.78;;;;;;;9.14;65.45;99610.00;332778;28;17090;-71
2023/04/27 00:15:10;;;;;;;8.52;3.80;;;;;;;9.15;65.72;99608.25;333993;29;5239;-71
2023/04/27 00:15:21;;;;;;;9.50;4.00;;;;;;;9.15;65.30;99609.09;331006;29;17947;-71
2023/04/27 00:15:33;;;;;;;6.82;3.80;;;;;;;9.12;65.45;99606.59;333792;29;5238;-72
2023/04/27 00:15:45;;;;;;;5.47;3.50;;;;;;;9.07;65.70;99603.25;329809;29;5328;-72
2023/04/27 00:15:59;;;;;;;4.85;3.50;;;;;;;9.11;65.83;99610.06;333853;29;5615;-72
2023/04/27 00:16:12;;;;;;;5.53;4.05;;;;;;;9.12;65.68;99603.16;329887;29;17986;-71
2023/04/27 00:16:24;;;;;;;6.00;4.10;;;;;;;9.07;65.68;99603.25;333053;29;4617;-71
2023/04/27 00:16:36;;;;;;;6.10;3.88;;;;;;;9.04;66.13;99608.53;330157;29;18330;-72
2023/04/27 00:16:48;;;;;;;5.68;3.80;;;;;;;8.98;65.92;99606.13;332279;29;5308;-71
2023/04/27 00:17:00;;;;;;;5.93;4.00;;;;;;;8.94;66.28;99607.09;331379;29;4635;-72
2023/04/27 00:17:12;;;;;;;7.43;4.00;;;;;;;8.97;66.39;99607.00;333277;28;19501;-72
2023/04/27 00:17:24;;;;;;;8.40;3.83;;;;;;;8.96;66.16;99605.31;334845;29;4691;-71
2023/04/27 00:17:37;;;;;;;7.80;3.90;;;;;;;8.96;65.92;99610.50;330994;29;17849;-71
2023/04/27 00:17:49;;;;;;;6.20;3.85;;;;;;;8.96;65.45;99610.50;333715;29;4712;-71
2023/04/27 00:18:01;;;;;;;5.80;3.80;;;;;;;8.94;65.98;99607.94;331997;29;17553;-71
2023/04/27 00:18:13;;;;;;;5.97;3.97;;;;;;;8.95;66.17;99611.38;334441;28;5174;-71
2023/04/27 00:18:25;;;;;;;5.97;3.90;;;;;;;8.92;66.12;99603.69;335889;28;4691;-71
2023/04/27 00:18:37;;;;;;;4.72;3.60;;;;;;;8.92;65.58;99606.28;333300;28;18117;-72
2023/04/27 00:18:49;;;;;;;5.13;3.83;;;;;;;8.97;65.38;99607.00;335553;28;4555;-71
2023/04/27 00:19:01;;;;;;;6.80;4.05;;;;;;;8.98;65.08;99608.72;332968;28;16597;-71
2023/04/27 00:19:14;;;;;;;7.53;3.90;;;;;;;8.98;65.09;99606.13;335264;28;4568;-72
2023/04/27 00:19:27;;;;;;;6.90;3.90;;;;;;;8.97;65.20;99607.00;332956;28;19354;-71
2023/04/27 00:19:40;;;;;;;6.78;4.00;;;;;;;8.98;65.14;99613.91;335043;28;4715;-73
2023/04/27 00:19:53;;;;;;;6.38;3.80;;;;;;;8.97;65.17;99601.81;332619;28;18057;-71
2023/04/27 00:20:07;;;;;;;6.80;3.80;;;;;;;8.96;65.47;99607.91;334215;29;4747;-71
2023/04/27 00:20:19;;;;;;;6.70;3.85;;;;;;;8.95;65.60;99608.78;331618;29;18312;-71
2023/04/27 00:20:32;;;;;;;5.80;3.70;;;;;;;8.93;65.17;99605.38;331023;29;18244;-71
2023/04/27 00:20:44;;;;;;;6.47;3.80;;;;;;;8.93;65.32;99606.25;332879;29;4659;-72
2023/04/27 00:20:57;;;;;;;7.53;4.00;;;;;;;8.94;65.25;99601.91;330762;29;19150;-72
2023/04/27 00:21:08;;;;;;;5.70;3.72;;;;;;;8.94;65.03;99602.75;334367;29;4791;-72
2023/04/27 00:21:20;;;;;;;4.90;3.67;;;;;;;8.98;64.66;99606.13;331676;29;5245;-72
2023/04/27 00:21:32;;;;;;;4.93;3.90;;;;;;;8.96;64.77;99607.91;334306;28;5165;-72
2023/04/27 00:21:44;;;;;;;5.22;3.90;;;;;;;8.95;64.79;99606.19;335423;28;4728;-72
2023/04/27 00:21:56;;;;;;;5.38;3.75;;;;;;;8.96;64.81;99605.31;331561;29;18222;-71
2023/04/27 00:22:08;;;;;;;6.60;3.60;;;;;;;8.94;64.42;99605.34;334767;28;4630;-72
2023/04/27 00:22:21;;;;;;;6.43;3.70;;;;;;;8.94;64.52;99604.50;332955;28;5195;-73
2023/04/27 00:22:33;;;;;;;6.95;3.65;;;;;;;8.95;64.70;99603.59;334235;28;15243;-72
2023/04/27 00:22:45;;;;;;;7.72;3.50;;;;;;;8.97;64.24;99596.63;335657;28;5256;-72
2023/04/27 00:22:57;;;;;;;7.43;3.60;;;;;;;8.90;63.99;99602.88;332091;28;18252;-71
2023/04/27 00:23:09;;;;;;;6.28;3.40;;;;;;;8.93;64.57;99605.38;334463;29;5444;-71
2023/04/27 00:23:21;;;;;;;4.97;3.28;;;;;;;8.94;64.71;99599.31;332100;29;18362;-71
2023/04/27 00:23:34;;;;;;;7.13;3.35;;;;;;;8.94;64.38;99599.31;334344;29;5393;-71
2023/04/27 00:23:46;;;;;;;8.55;3.50;;;;;;;8.96;64.53;99605.31;331314;29;5922;-72
2023/04/27 00:23:58;;;;;;;8.20;3.50;;;;;;;8.96;65.35;99595.78;334365;29;4686;-71
2023/04/27 00:24:09;;;;;;;5.55;3.53;;;;;;;8.92;65.76;99603.69;334295;29;4688;-72
2023/04/27 00:24:21;;;;;;;5.82;3.53;;;;;;;8.93;65.30;99605.38;332090;29;9499;-72
2023/04/27 00:24:33;;;;;;;6.72;3.80;;;;;;;8.95;65.45;99603.59;334199;28;4575;-72
2023/04/27 00:24:45;;;;;;;5.88;3.80;;;;;;;8.95;65.21;99601.00;331471;29;10319;-71
2023/04/27 00:24:57;;;;;;;7.63;3.80;;;;;;;8.94;65.58;99602.75;333464;29;18833;-71
2023/04/27 00:25:10;;;;;;;8.00;3.80;;;;;;;8.95;65.61;99606.19;334135;29;4589;-71
2023/04/27 00:25:22;;;;;;;6.63;3.70;;;;;;;8.96;65.37;99600.13;332021;29;18097;-70
2023/04/27 00:25:34;;;;;;;7.05;3.67;;;;;;;8.98;65.72;99603.53;333599;29;4593;-70
2023/04/27 00:25:46;;;;;;;7.95;3.65;;;;;;;8.97;66.03;99594.91;330786;28;18197;-71
2023/04/27 00:25:58;;;;;;;8.07;3.70;;;;;;;8.98;66.08;99603.53;334663;28;5558;-71
2023/04/27 00:26:10;;;;;;;7.10;3.67;;;;;;;8.97;66.13;99607.00;335650;28;5337;-72
2023/04/27 00:26:22;;;;;;;5.82;3.75;;;;;;;8.97;66.48;99599.22;332965;28;18324;-71
2023/04/27 00:26:34;;;;;;;6.70;3.95;;;;;;;8.97;66.50;99604.41;334871;29;4673;-71
2023/04/27 00:26:46;;;;;;;7.57;4.00;;;;;;;8.97;65.72;99599.22;333006;28;16509;-71
2023/04/27 00:26:58;;;;;;;8.30;4.10;;;;;;;8.97;65.36;99599.22;335088;28;5569;-73
2023/04/27 00:27:12;;;;;;;6.78;4.03;;;;;;;8.98;65.21;99599.19;334795;29;4750;-72
2023/04/27 00:27:24;;;;;;;4.85;3.60;;;;;;;9.00;64.82;99599.16;331829;29;18035;-73
2023/04/27 00:27:36;;;;;;;4.60;3.50;;;;;;;9.00;64.37;99599.16;331937;28;10331;-71
2023/04/27 00:27:48;;;;;;;4.80;3.72;;;;;;;9.00;65.24;99602.59;334993;28;5447;-71
2023/04/27 00:28:00;;;;;;;4.50;3.65;;;;;;;9.01;65.13;99598.25;335266;28;4612;-72
2023/04/27 00:28:12;;;;;;;5.60;3.70;;;;;;;9.03;65.20;99593.03;332708;28;18387;-71
2023/04/27 00:28:24;;;;;;;5.97;3.70;;;;;;;8.99;64.95;99592.25;334649;29;4732;-72
2023/04/27 00:28:36;;;;;;;6.32;3.80;;;;;;;8.96;64.88;99600.97;332053;29;10032;-72
2023/04/27 00:28:48;;;;;;;6.13;3.85;;;;;;;9.00;64.66;99599.16;335008;28;5508;-71
2023/04/27 00:29:00;;;;;;;5.45;3.75;;;;;;;8.98;64.54;99599.19;334284;28;4553;-72
2023/04/27 00:29:12;;;;;;;4.85;3.70;;;;;;;8.98;64.79;99594.00;331128;29;9815;-72
2023/04/27 00:29:24;;;;;;;6.15;3.75;;;;;;;8.99;65.55;99594.84;334212;29;4651;-71
2023/04/27 00:29:36;;;;;;;5.50;3.67;;;;;;;8.98;65.33;99593.16;330463;29;16499;-71
2023/04/27 00:29:48;;;;;;;4.90;3.70;;;;;;;8.99;65.17;99594.84;332941;29;5905;-71
2023/04/27 00:30:00;;;;;;;5.90;3.63;;;;;;;8.96;65.12;99600.97;332465;29;4544;-71
2023/04/27 00:30:13;;;;;;;5.82;3.67;;;;;;;8.97;65.53;99591.44;329171;29;17446;-71
2023/04/27 00:30:25;;;;;;;5.25;3.63;;;;;;;8.97;65.85;99594.03;333237;29;5492;-72
2023/04/27 00:30:37;;;;;;;5.15;3.90;;;;;;;8.96;65.73;99597.53;327953;29;18328;-73
2023/04/27 00:30:49;;;;;;;5.23;3.70;;;;;;;8.96;65.22;99598.38;332881;29;4648;-72
2023/04/27 00:31:02;;;;;;;4.82;3.53;;;;;;;8.99;64.99;99594.84;332011;29;16436;-71
2023/04/27 00:31:15;;;;;;;4.38;3.42;;;;;;;8.97;65.43;99589.72;333813;29;4647;-71
2023/04/27 00:31:27;;;;;;;4.88;3.50;;;;;;;8.98;65.86;99593.16;330896;29;18184;-72
2023/04/27 00:31:40;;;;;;;5.22;3.33;;;;;;;8.94;65.50;99591.53;334088;28;5546;-72
2023/04/27 00:31:52;;;;;;;5.53;3.40;;;;;;;8.94;64.64;99591.53;333546;28;17773;-72
2023/04/27 00:32:04;;;;;;;7.55;3.67;;;;;;;8.96;64.91;99589.75;336732;28;5478;-71
2023/04/27 00:32:16;;;;;;;7.53;3.95;;;;;;;8.97;65.05;99591.44;331591;28;16532;-71
2023/04/27 00:32:28;;;;;;;6.45;3.97;;;;;;;8.96;64.90;99587.16;335640;28;4715;-71
2023/04/27 00:32:41;;;;;;;6.50;3.85;;;;;;;8.96;65.30;99594.94;335476;28;5162;-71
2023/04/27 00:32:53;;;;;;;5.72;3.58;;;;;;;8.98;65.13;99596.59;331841;29;18911;-71
2023/04/27 00:33:05;;;;;;;4.75;3.67;;;;;;;9.01;65.09;99593.06;334012;29;4698;-71
2023/04/27 00:33:17;;;;;;;5.32;3.80;;;;;;;8.94;64.92;99594.97;331265;29;18287;-71
2023/04/27 00:33:29;;;;;;;5.53;3.90;;;;;;;8.94;64.93;99591.53;335807;28;5210;-71
2023/04/27 00:33:41;;;;;;;5.78;3.92;;;;;;;8.90;64.68;99589.91;332579;28;19160;-71
2023/04/27 00:33:53;;;;;;;6.15;3.95;;;;;;;8.89;64.18;99595.97;335829;28;5205;-71
2023/04/27 00:34:05;;;;;;;6.45;3.70;;;;;;;8.87;64.03;99595.16;335872;28;4693;-71
2023/04/27 00:34:17;;;;;;;6.18;3.67;;;;;;;8.90;64.12;99590.75;331396;28;18113;-72
2023/04/27 00:34:29;;;;;;;7.05;3.60;;;;;;;8.92;64.23;99591.56;335513;28;5540;-71
2023/04/27 00:34:41;;;;;;;6.85;3.70;;;;;;;8.94;64.38;99594.13;333107;28;18115;-71
2023/04/27 00:34:53;;;;;;;8.40;4.53;;;;;;;8.92;64.95;99590.72;335473;28;5165;-71
2023/04/27 00:35:06;;;;;;;7.50;4.70;;;;;;;8.93;65.01;99587.22;335832;28;4525;-72
2023/04/27 00:35:21;;;;;;;5.90;4.03;;;;;;;8.93;65.25;99579.44;334612;28;18074;-71
2023/04/27 00:35:33;;;;;;;5.72;3.70;;;;;;;8.92;65.70;99588.97;333039;28;17989;-71
2023/04/27 00:35:45;;;;;;;5.78;3.83;;;;;;;8.93;65.62;99584.63;335989;28;5013;-71
2023/04/27 00:36:00;;;;;;;6.43;3.80;;;;;;;8.96;65.17;99584.56;331824;29;18433;-71
2023/04/27 00:36:12;;;;;;;6.47;3.90;;;;;;;8.96;65.09;99587.16;331423;29;17973;-72
2023/04/27 00:36:24;;;;;;;5.47;3.75;;;;;;;8.96;65.41;99584.56;334250;28;5610;-71
2023/04/27 00:36:36;;;;;;;5.32;3.80;;;;;;;8.94;65.88;99586.34;331576;29;10868;-72
2023/04/27 00:36:48;;;;;;;5.55;3.75;;;;;;;8.95;65.84;99583.72;332344;29;4681;-71
2023/04/27 00:37:00;;;;;;;6.10;3.75;;;;;;;8.93;65.40;99579.44;332888;29;5136;-72
2023/04/27 00:37:12;;;;;;;7.43;3.90;;;;;;;8.94;65.79;99581.16;329902;29;17857;-71
2023/04/27 00:37:24;;;;;;;8.18;3.88;;;;;;;8.89;65.82;99586.44;332017;29;4537;-72
2023/04/27 00:37:36;;;;;;;8.27;3.80;;;;;;;8.86;66.20;99583.13;331395;29;5241;-71
2023/04/27 00:37:48;;;;;;;9.43;4.00;;;;;;;8.90;66.11;99582.97;332946;29;4553;-72
2023/04/27 00:38:00;;;;;;;8.73;4.10;;;;;;;8.90;66.11;99582.97;333853;29;5428;-72
2023/04/27 00:38:12;;;;;;;8.10;3.80;;;;;;;8.90;66.15;99584.75;331124;29;19502;-72
2023/04/27 00:38:24;;;;;;;6.22;3.53;;;;;;;8.88;65.95;99584.78;333631;29;4709;-71
2023/04/27 00:38:36;;;;;;;7.03;3.58;;;;;;;8.87;65.46;99579.63;331044;29;18319;-71
2023/04/27 00:38:48;;;;;;;9.65;3.90;;;;;;;8.89;65.17;99583.03;334578;29;5605;-71
2023/04/27 00:39:02;;;;;;;9.38;3.95;;;;;;;8.89;64.99;99583.03;335822;28;4552;-71
2023/04/27 00:39:16;;;;;;;7.60;3.83;;;;;;;8.87;65.59;99585.66;332095;29;16209;-71
2023/04/27 00:39:36;;;;;;;6.60;3.78;;;;;;;8.89;65.29;99585.63;332003;29;16975;-71
2023/04/27 00:40:10;;;;;;;5.03;3.88;;;;;;;8.90;64.94;99584.75;331471;28;18215;-72
2023/04/27 00:40:21;;;;;;;8.70;3.80;;;;;;;8.89;65.95;99583.03;331647;29;17277;-71
2023/04/27 00:40:33;;;;;;;6.50;3.80;;;;;;;8.87;65.72;99585.66;334139;29;4640;-71
2023/04/27 00:40:45;;;;;;;7.97;3.72;;;;;;;8.82;64.85;99586.69;335364;28;4593;-72
2023/04/27 00:41:01;;;;;;;9.15;3.90;;;;;;;8.83;64.65;99585.78;331116;29;18185;-71
2023/04/27 00:41:13;;;;;;;7.05;3.80;;;;;;;8.83;65.07;99584.03;331694;29;16252;-71
2023/04/27 00:41:25;;;;;;;6.00;3.53;;;;;;;8.85;65.02;99582.25;333785;29;4765;-72
2023/04/27 00:41:40;;;;;;;6.25;3.58;;;;;;;8.87;65.14;99589.97;329591;29;18074;-72
2023/04/27 00:41:52;;;;;;;5.55;3.30;;;;;;;8.90;65.03;99590.75;330817;29;18019;-72
2023/04/27 00:42:05;;;;;;;5.45;3.17;;;;;;;8.90;64.94;99587.31;334507;29;4769;-72
2023/04/27 00:42:18;;;;;;;7.03;3.47;;;;;;;8.88;65.02;99583.94;329334;29;17587;-71
2023/04/27 00:42:30;;;;;;;7.78;3.63;;;;;;;8.89;64.81;99588.19;333009;29;5228;-71
2023/04/27 00:42:42;;;;;;;5.18;3.50;;;;;;;8.89;64.75;99588.19;329905;29;18112;-72
2023/04/27 00:42:54;;;;;;;5.32;3.60;;;;;;;8.89;64.81;99583.88;332613;29;5224;-72
2023/04/27 00:43:06;;;;;;;4.57;3.40;;;;;;;8.89;64.60;99591.63;332436;28;4667;-72
2023/04/27 00:43:18;;;;;;;5.15;3.60;;;;;;;8.89;64.49;99589.03;334848;29;4536;-72
2023/04/27 00:43:31;;;;;;;4.82;3.40;;;;;;;8.90;64.67;99589.91;335563;28;4613;-72
2023/04/27 00:43:44;;;;;;;6.53;3.42;;;;;;;8.89;64.54;99583.03;333432;28;19230;-72
2023/04/27 00:43:57;;;;;;;9.13;3.47;;;;;;;8.88;64.82;99589.94;331611;28;18153;-71
2023/04/27 00:44:08;;;;;;;8.30;3.33;;;;;;;8.90;64.50;99589.91;334605;28;5575;-71
2023/04/27 00:44:22;;;;;;;7.75;3.20;;;;;;;8.87;64.61;99587.41;334686;29;5345;-72
2023/04/27 00:44:34;;;;;;;6.78;3.25;;;;;;;8.87;64.61;99592.56;331636;29;17823;-72
2023/04/27 00:44:46;;;;;;;9.35;3.70;;;;;;;8.79;64.91;99593.66;331357;28;17939;-71
2023/04/27 00:44:58;;;;;;;11.73;3.80;;;;;;;8.74;65.26;99592.91;334536;29;4487;-71
2023/04/27 00:45:13;;;;;;;11.57;3.75;;;;;;;8.71;65.32;99584.34;334470;29;4669;-71
2023/04/27 00:45:25;;;;;;;12.68;4.00;;;;;;;8.71;65.61;99587.81;331991;28;17529;-72
2023/04/27 00:45:41;;;;;;;12.45;4.03;;;;;;;8.71;65.29;99593.00;332522;28;18977;-72
2023/04/27 00:45:53;;;;;;;12.18;4.07;;;;;;;8.73;65.26;99599.00;332779;28;17791;-72
2023/04/27 00:46:06;;;;;;;12.98;4.07;;;;;;;8.71;65.40;99595.59;336818;28;4680;-72
2023/04/27 00:46:18;;;;;;;13.38;4.20;;;;;;;8.70;65.50;99593.03;333435;28;17644;-72
2023/04/27 00:46:32;;;;;;;10.80;3.90;;;;;;;8.68;65.44;99590.47;335502;28;4620;-71
2023/04/27 00:46:44;;;;;;;10.07;3.85;;;;;;;8.63;65.65;99586.28;333337;28;17749;-71
2023/04/27 00:46:57;;;;;;;8.15;3.80;;;;;;;8.65;65.65;99590.53;335115;28;4547;-72
2023/04/27 00:47:10;;;;;;;7.82;3.80;;;;;;;8.65;65.54;99590.53;334252;28;17679;-71
2023/04/27 00:47:22;;;;;;;9.20;3.90;;;;;;;8.64;65.93;99588.00;335522;28;5853;-71
2023/04/27 00:47:34;;;;;;;8.93;4.10;;;;;;;8.64;65.65;99594.03;332926;28;18016;-71
2023/04/27 00:47:46;;;;;;;8.10;4.07;;;;;;;8.66;65.95;99592.25;335272;28;5476;-72
2023/04/27 00:47:58;;;;;;;9.52;3.95;;;;;;;8.70;65.39;99588.69;332665;28;18159;-73
2023/04/27 00:48:11;;;;;;;11.15;3.80;;;;;;;8.71;65.40;99590.41;334636;29;4695;-72
2023/04/27 00:48:23;;;;;;;10.75;3.95;;;;;;;8.70;65.54;99593.88;331768;29;17996;-71
2023/04/27 00:48:36;;;;;;;16.77;4.05;;;;;;;8.69;66.03;99592.19;334266;29;5308;-71
2023/04/27 00:48:48;;;;;;;14.25;4.05;;;;;;;8.69;65.63;99592.19;329160;28;17863;-71
2023/04/27 00:49:01;;;;;;;10.68;4.40;;;;;;;8.70;65.44;99590.44;335172;28;4510;-72
2023/04/27 00:49:13;;;;;;;11.23;4.60;;;;;;;8.67;65.09;99591.38;332531;28;16109;-73
2023/04/27 00:49:26;;;;;;;12.70;4.40;;;;;;;8.69;65.21;99592.19;335659;28;5262;-72
2023/04/27 00:49:39;;;;;;;11.15;4.40;;;;;;;8.71;65.44;99595.59;332212;28;18057;-72
2023/04/27 00:49:52;;;;;;;13.57;4.30;;;;;;;8.70;66.26;99591.28;334849;28;4610;-72
2023/04/27 00:50:07;;;;;;;17.40;4.70;;;;;;;8.71;66.88;99590.41;331456;29;18064;-72
2023/04/27 00:50:27;;;;;;;16.60;4.88;;;;;;;8.69;66.66;99587.00;331515;29;17647;-71
2023/04/27 00:50:39;;;;;;;11.88;4.75;;;;;;;8.63;66.96;99592.31;332980;28;17845;-71
2023/04/27 00:50:51;;;;;;;8.70;4.53;;;;;;;8.62;66.44;99590.63;334409;29;5804;-72
2023/04/27 00:51:04;;;;;;;7.50;3.83;;;;;;;8.60;66.35;99587.22;331930;29;5561;-71
2023/04/27 00:51:17;;;;;;;14.05;4.13;;;;;;;8.58;66.65;99583.81;333598;29;4618;-71
2023/04/27 00:51:30;;;;;;;15.05;4.20;;;;;;;8.58;66.79;99589.84;330209;29;17891;-72
2023/04/27 00:51:42;;;;;;;14.25;4.18;;;;;;;8.55;66.18;99591.66;333164;29;5431;-71
2023/04/27 00:51:55;;;;;;;14.50;4.00;;;;;;;8.54;66.13;99593.41;330559;29;17501;-72
2023/04/27 00:52:07;;;;;;;13.00;3.80;;;;;;;8.57;66.09;99587.28;334763;29;4610;-71
2023/04/27 00:52:19;;;;;;;11.07;4.05;;;;;;;8.57;66.17;99585.56;331673;29;17966;-71
2023/04/27 00:52:31;;;;;;;12.20;4.10;;;;;;;8.57;66.69;99589.88;334878;29;4566;-72
2023/04/27 00:52:43;;;;;;;11.50;3.88;;;;;;;8.58;66.66;99591.59;331155;29;18000;-72
2023/04/27 00:52:56;;;;;;;11.27;3.70;;;;;;;8.61;66.58;99594.09;333199;29;4616;-72
2023/04/27 00:53:08;;;;;;;9.63;3.80;;;;;;;8.60;66.07;99584.63;331388;29;16706;-72
2023/04/27 00:53:20;;;;;;;15.00;4.07;;;;;;;8.61;66.32;99586.31;334466;29;5629;-71
2023/04/27 00:53:33;;;;;;;17.60;4.35;;;;;;;8.63;66.63;99587.13;334328;29;4678;-71
2023/04/27 00:53:45;;;;;;;16.98;4.30;;;;;;;8.66;66.47;99589.66;330663;29;18126;-71
2023/04/27 00:53:57;;;;;;;11.23;4.20;;;;;;;8.65;66.31;99589.69;334632;29;5353;-72
2023/04/27 00:54:10;;;;;;;9.60;3.80;;;;;;;8.67;66.59;99588.78;331745;29;17884;-72
2023/04/27 00:54:22;;;;;;;9.27;3.85;;;;;;;8.68;66.33;99587.03;334310;29;4673;-72
2023/04/27 00:54:35;;;;;;;11.10;4.30;;;;;;;8.69;65.99;99586.13;331308;29;18243;-71
2023/04/27 00:54:51;;;;;;;11.60;4.43;;;;;;;8.67;66.65;99580.13;335217;28;5007;-71
2023/04/27 00:55:04;;;;;;;13.65;4.20;;;;;;;8.68;66.22;99574.94;328750;28;17762;-71
2023/04/27 00:55:19;;;;;;;15.82;4.15;;;;;;;8.71;66.18;99587.81;332861;28;4628;-72
2023/04/27 00:55:30;;;;;;;15.18;4.40;;;;;;;8.71;65.90;99585.22;332920;28;16825;-72
2023/04/27 00:55:42;;;;;;;10.77;4.30;;;;;;;8.70;65.97;99583.50;332841;28;4679;-72
2023/04/27 00:55:56;;;;;;;13.73;4.10;;;;;;;8.69;65.99;99581.81;334558;28;4655;-72
2023/04/27 00:56:08;;;;;;;14.45;3.90;;;;;;;8.71;66.07;99580.03;331836;28;18425;-71
2023/04/27 00:56:21;;;;;;;14.32;3.97;;;;;;;8.71;66.22;99590.41;335113;28;5462;-72
2023/04/27 00:56:33;;;;;;;12.15;3.78;;;;;;;8.72;66.16;99586.91;331449;28;18379;-71
2023/04/27 00:56:51;;;;;;;10.57;3.80;;;;;;;8.73;65.70;99582.56;335655;28;4878;-71
2023/04/27 00:57:04;;;;;;;14.40;3.90;;;;;;;8.72;65.96;99580.88;331903;28;17815;-71
2023/04/27 00:57:16;;;;;;;14.13;3.90;;;;;;;8.73;65.96;99588.63;335482;28;4584;-72
2023/04/27 00:57:28;;;;;;;6.25;3.53;;;;;;;8.73;65.97;99580.84;333327;28;9611;-72
2023/04/27 00:57:40;;;;;;;6.22;3.60;;;;;;;8.75;65.92;99586.84;335463;28;5430;-72
2023/04/27 00:57:52;;;;;;;8.18;3.85;;;;;;;8.74;66.03;99584.28;334829;28;4545;-72
2023/04/27 00:58:04;;;;;;;8.43;3.80;;;;;;;8.74;65.83;99585.13;332666;28;17240;-72
2023/04/27 00:58:16;;;;;;;10.02;3.97;;;;;;;8.72;65.35;99581.72;335158;28;4541;-72
2023/04/27 00:58:28;;;;;;;14.32;4.15;;;;;;;8.72;65.83;99586.06;333665;28;9017;-72
2023/04/27 00:58:39;;;;;;;15.10;3.95;;;;;;;8.71;65.09;99580.03;335803;28;5467;-71
2023/04/27 00:58:51;;;;;;;15.50;3.75;;;;;;;8.71;65.23;99585.22;335339;28;4762;-71
2023/04/27 00:59:03;;;;;;;13.18;3.90;;;;;;;8.67;65.01;99578.41;332663;28;18498;-71
2023/04/27 00:59:16;;;;;;;12.23;4.03;;;;;;;8.67;64.73;99582.72;333792;29;4655;-71
2023/04/27 00:59:28;;;;;;;11.70;4.20;;;;;;;8.65;65.08;99580.16;330106;29;16694;-72
2023/04/27 00:59:40;;;;;;;14.02;4.10;;;;;;;8.64;65.13;99583.66;333146;29;5281;-72
2023/04/27 00:59:52;;;;;;;13.88;4.25;;;;;;;8.63;65.35;99587.13;334009;29;4605;-72
2023/04/27 01:00:06;;;;;;;13.15;4.50;;;;;;;8.62;65.93;99580.28;331789;29;18192;-71
2023/04/27 01:00:18;;;;;;;11.68;4.63;;;;;;;8.65;65.95;99587.09;333241;28;9106;-72
2023/04/27 01:00:30;;;;;;;12.10;4.47;;;;;;;8.64;66.28;99582.81;335420;28;4764;-71
2023/04/27 01:00:42;;;;;;;17.33;4.10;;;;;;;8.64;66.35;99583.66;335020;28;5049;-71